createdAt,value
2023-05-02T00:00:55.105Z,87.60
2023-05-02T00:03:23.528Z,88.00
2023-05-02T00:05:51.263Z,88.30
2023-05-02T00:08:19.112Z,88.60
2023-05-02T00:10:46.955Z,88.80
2023-05-02T00:13:14.635Z,88.90
2023-05-02T00:15:42.228Z,89.10
2023-05-02T00:18:10.302Z,89.30
2023-05-02T00:20:41.472Z,89.60
2023-05-02T00:23:09.955Z,89.70
2023-05-02T00:25:37.820Z,89.80
2023-05-02T00:28:05.807Z,90.00
2023-05-02T00:30:34.192Z,90.10
2023-05-02T00:33:02.498Z,90.20
2023-05-02T00:35:30.014Z,90.20
2023-05-02T00:37:59.900Z,90.20
2023-05-02T00:40:27.458Z,90.20
2023-05-02T00:42:55.419Z,90.30
2023-05-02T00:45:23.634Z,90.40
2023-05-02T00:47:51.404Z,90.40
2023-05-02T00:50:19.429Z,90.50
2023-05-02T00:52:47.551Z,90.70
2023-05-02T00:55:15.423Z,90.70
2023-05-02T00:57:43.060Z,90.80
2023-05-02T01:00:12.140Z,90.80
2023-05-02T01:02:53.349Z,90.90
2023-05-02T01:05:27.902Z,91.00
2023-05-02T01:08:28.016Z,91.20
2023-05-02T01:11:24.878Z,91.30
2023-05-02T01:13:55.518Z,91.30
2023-05-02T01:16:25.469Z,91.40
2023-05-02T01:18:53.436Z,91.50
2023-05-02T01:21:21.761Z,91.60
2023-05-02T01:24:19.786Z,91.70
2023-05-02T01:27:29.592Z,92.30
2023-05-02T01:29:59.308Z,92.10
2023-05-02T01:32:31.689Z,92.00
2023-05-02T01:35:01.668Z,92.20
2023-05-02T01:37:30.814Z,92.30
2023-05-02T01:40:01.203Z,92.40
2023-05-02T01:42:31.099Z,92.60
2023-05-02T01:45:00.629Z,92.70
2023-05-02T01:47:31.744Z,92.90
2023-05-02T01:50:01.635Z,93.10
2023-05-02T01:52:30.645Z,93.20
2023-05-02T01:55:00.853Z,93.30
2023-05-02T01:57:28.285Z,93.40
2023-05-02T01:59:58.512Z,93.50
2023-05-02T02:02:29.039Z,94.00
2023-05-02T02:04:57.945Z,93.80
2023-05-02T02:07:25.606Z,93.90
2023-05-02T02:09:53.587Z,94.00
2023-05-02T02:12:44.031Z,94.10
2023-05-02T02:15:37.809Z,94.30
2023-05-02T02:18:16.431Z,94.40
2023-05-02T02:20:46.729Z,94.50
2023-05-02T02:23:16.005Z,94.50
2023-05-02T02:25:45.331Z,94.60
2023-05-02T02:28:13.495Z,94.80
2023-05-02T02:30:41.435Z,94.90
2023-05-02T02:33:09.286Z,95.00
2023-05-02T02:35:46.332Z,95.10
2023-05-02T02:38:22.904Z,95.20
2023-05-02T02:40:57.466Z,95.30
2023-05-02T02:43:40.480Z,95.40
2023-05-02T02:46:20.298Z,95.60
2023-05-02T02:49:25.778Z,95.70
2023-05-02T02:52:53.462Z,95.80
2023-05-02T02:55:45.804Z,95.90
2023-05-02T02:58:28.516Z,96.00
2023-05-02T03:00:57.233Z,96.10
2023-05-02T03:03:29.235Z,96.10
2023-05-02T03:05:57.530Z,96.30
2023-05-02T03:08:26.052Z,96.30
2023-05-02T03:10:54.056Z,96.50
2023-05-02T03:13:22.071Z,96.60
2023-05-02T03:15:53.990Z,96.60
2023-05-02T03:18:28.279Z,96.70
2023-05-02T03:20:55.852Z,96.70
2023-05-02T03:23:23.826Z,96.80
2023-05-02T03:25:53.038Z,96.90
2023-05-02T03:28:24.241Z,96.90
2023-05-02T03:30:53.440Z,97.00
2023-05-02T03:33:22.181Z,97.00
2023-05-02T03:35:49.862Z,97.10
2023-05-02T03:38:17.670Z,97.10
2023-05-02T03:40:48.133Z,97.10
2023-05-02T03:43:16.025Z,97.10
2023-05-02T03:45:43.740Z,97.10
2023-05-02T03:48:11.524Z,97.20
2023-05-02T03:50:39.153Z,97.20
2023-05-02T03:53:08.385Z,97.20
2023-05-02T03:55:45.912Z,97.30
2023-05-02T03:58:21.176Z,97.30
2023-05-02T04:00:48.970Z,97.40
2023-05-02T04:03:17.058Z,97.40
2023-05-02T04:05:46.584Z,97.40
2023-05-02T04:08:17.236Z,97.50
2023-05-02T04:10:45.581Z,97.50
2023-05-02T04:13:14.299Z,97.50
2023-05-02T04:15:45.932Z,97.60
2023-05-02T04:18:15.856Z,97.60
2023-05-02T04:20:45.303Z,97.60
2023-05-02T04:23:16.233Z,97.70
2023-05-02T04:25:52.320Z,97.70
2023-05-02T04:28:22.069Z,97.90
2023-05-02T04:30:50.700Z,97.80
2023-05-02T04:33:21.278Z,97.90
2023-05-02T04:35:49.036Z,97.90
2023-05-02T04:38:17.768Z,97.90
2023-05-02T04:40:46.935Z,98.00
2023-05-02T04:43:14.357Z,98.00
2023-05-02T04:45:48.895Z,98.00
2023-05-02T04:48:25.496Z,98.10
2023-05-02T04:50:54.074Z,98.20
2023-05-02T04:53:22.514Z,98.20
2023-05-02T04:55:50.509Z,98.30
2023-05-02T04:58:18.070Z,98.20
2023-05-02T05:00:50.855Z,98.20
2023-05-02T05:03:18.376Z,98.20
2023-05-02T05:05:46.141Z,98.20
2023-05-02T05:08:15.667Z,98.20
2023-05-02T05:10:43.308Z,98.10
2023-05-02T05:13:12.631Z,98.10
2023-05-02T05:15:41.297Z,98.10
2023-05-02T05:18:11.319Z,98.00
2023-05-02T05:20:39.394Z,98.00
2023-05-02T05:23:07.292Z,98.00
2023-05-02T05:25:35.367Z,98.00
2023-05-02T05:28:03.717Z,98.00
2023-05-02T05:30:33.694Z,98.00
2023-05-02T05:33:03.399Z,98.00
2023-05-02T05:35:32.073Z,98.00
2023-05-02T05:38:01.677Z,97.90
2023-05-02T05:40:31.025Z,97.90
2023-05-02T05:42:59.777Z,98.00
2023-05-02T05:45:34.538Z,98.00
2023-05-02T05:48:02.097Z,98.00
2023-05-02T05:50:33.269Z,98.00
2023-05-02T05:53:01.053Z,98.00
2023-05-02T05:55:29.030Z,98.00
2023-05-02T05:57:57.272Z,98.00
2023-05-02T06:00:24.833Z,98.10
2023-05-02T06:02:53.873Z,98.40
2023-05-02T06:05:28.932Z,98.10
2023-05-02T06:08:00.119Z,98.10
2023-05-02T06:10:28.572Z,98.10
2023-05-02T06:12:56.264Z,98.10
2023-05-02T06:15:28.555Z,98.10
2023-05-02T06:17:56.134Z,98.10
2023-05-02T06:20:23.724Z,98.10
2023-05-02T06:22:51.510Z,98.10
2023-05-02T06:25:19.101Z,98.20
2023-05-02T06:27:46.632Z,98.20
2023-05-02T06:30:14.100Z,98.20
2023-05-02T06:32:44.101Z,98.50
2023-05-02T06:35:12.205Z,98.20
2023-05-02T06:37:39.672Z,98.20
2023-05-02T06:40:10.127Z,98.20
2023-05-02T06:42:37.491Z,98.20
2023-05-02T06:45:05.342Z,98.20
2023-05-02T06:47:33.975Z,98.30
2023-05-02T06:50:03.939Z,98.30
2023-05-02T06:52:31.607Z,98.30
2023-05-02T06:54:59.371Z,98.30
2023-05-02T06:57:26.958Z,98.40
2023-05-02T06:59:54.449Z,98.40
2023-05-02T07:02:22.494Z,98.40
2023-05-02T07:04:49.992Z,98.40
2023-05-02T07:07:18.930Z,98.50
2023-05-02T07:09:46.467Z,98.60
2023-05-02T07:12:13.959Z,98.60
2023-05-02T07:14:41.557Z,98.50
2023-05-02T07:17:10.045Z,98.50
2023-05-02T07:19:37.699Z,98.50
2023-05-02T07:22:05.451Z,98.40
2023-05-02T07:24:32.879Z,98.40
2023-05-02T07:27:00.794Z,98.40
2023-05-02T07:29:28.271Z,98.40
2023-05-02T07:31:55.755Z,98.30
2023-05-02T07:34:23.268Z,98.40
2023-05-02T07:36:50.782Z,98.30
2023-05-02T07:39:19.718Z,98.20
2023-05-02T07:41:47.252Z,98.20
2023-05-02T07:44:14.747Z,98.10
2023-05-02T07:46:42.351Z,98.10
2023-05-02T07:49:09.972Z,98.10
2023-05-02T07:51:39.887Z,98.00
2023-05-02T07:54:21.203Z,98.00
2023-05-02T07:56:51.928Z,97.90
2023-05-02T07:59:19.387Z,97.80
2023-05-02T08:01:46.881Z,97.80
2023-05-02T08:04:14.566Z,97.70
2023-05-02T08:06:44.196Z,97.70
2023-05-02T08:09:11.737Z,97.60
2023-05-02T08:11:39.220Z,97.50
2023-05-02T08:14:06.635Z,97.50
2023-05-02T08:16:34.210Z,97.50
2023-05-02T08:19:01.867Z,97.50
2023-05-02T08:21:29.410Z,97.40
2023-05-02T08:24:00.358Z,97.10
2023-05-02T08:26:28.114Z,96.90
2023-05-02T08:28:55.932Z,96.90
2023-05-02T08:31:23.601Z,96.90
2023-05-02T08:33:51.654Z,96.90
2023-05-02T08:36:19.806Z,96.80
2023-05-02T08:38:47.710Z,96.50
2023-05-02T08:41:18.203Z,96.40
2023-05-02T08:43:46.979Z,96.30
2023-05-02T08:46:17.234Z,96.20
2023-05-02T08:48:48.239Z,96.00
2023-05-02T08:51:17.037Z,95.90
2023-05-02T08:53:45.120Z,95.80
2023-05-02T08:56:13.708Z,96.10
2023-05-02T08:58:41.890Z,95.90
2023-05-02T09:01:23.064Z,95.60
2023-05-02T09:03:52.516Z,95.40
2023-05-02T09:06:22.611Z,95.60
2023-05-02T09:08:55.162Z,95.30
2023-05-02T09:11:22.898Z,95.10
2023-05-02T09:13:52.024Z,94.90
2023-05-02T09:16:19.918Z,94.80
2023-05-02T09:18:52.411Z,94.60
2023-05-02T09:21:24.066Z,94.40
2023-05-02T09:23:52.687Z,94.30
2023-05-02T09:26:29.494Z,94.10
2023-05-02T09:29:00.398Z,94.00
2023-05-02T09:34:12.561Z,93.60
2023-05-02T09:36:42.356Z,93.60
2023-05-02T09:39:13.683Z,93.30
2023-05-02T09:41:43.212Z,93.20
2023-05-02T09:44:12.659Z,93.20
2023-05-02T09:46:44.530Z,93.20
2023-05-02T09:49:12.219Z,92.80
2023-05-02T09:51:41.392Z,92.70
2023-05-02T09:54:08.931Z,92.60
2023-05-02T09:56:53.763Z,92.40
2023-05-02T09:59:21.861Z,92.10
2023-05-02T10:02:01.531Z,92.10
2023-05-02T10:04:31.852Z,91.80
2023-05-02T10:07:00.309Z,91.80
2023-05-02T10:09:32.118Z,91.70
2023-05-02T10:12:06.906Z,91.50
2023-05-02T10:14:41.714Z,91.50
2023-05-02T10:17:13.498Z,91.30
2023-05-02T10:19:44.026Z,91.20
2023-05-02T10:22:13.482Z,91.10
2023-05-02T10:24:42.329Z,90.90
2023-05-02T10:27:10.982Z,90.70
2023-05-02T10:29:41.085Z,90.40
2023-05-02T10:32:09.898Z,90.30
2023-05-02T10:34:40.609Z,90.00
2023-05-02T10:37:08.438Z,89.90
2023-05-02T10:39:37.959Z,89.80
2023-05-02T10:42:06.649Z,89.70
2023-05-02T10:44:36.173Z,89.30
2023-05-02T10:47:27.078Z,88.30
2023-05-02T10:49:59.352Z,86.90
2023-05-02T10:52:41.839Z,88.20
2023-05-02T10:55:20.256Z,87.30
2023-05-02T10:58:00.213Z,86.90
2023-05-02T11:00:35.183Z,86.20
2023-05-02T11:03:03.277Z,86.30
2023-05-02T11:05:31.229Z,87.20
2023-05-02T11:08:30.381Z,86.10
2023-05-02T11:10:57.963Z,85.50
2023-05-02T11:13:50.957Z,85.40
2023-05-02T11:16:18.686Z,84.30
2023-05-02T11:19:00.835Z,84.00
2023-05-02T11:21:31.159Z,82.40
2023-05-02T11:24:36.316Z,82.50
2023-05-02T11:27:32.109Z,81.20
2023-05-02T11:30:07.041Z,80.40
2023-05-02T11:32:48.560Z,80.20
2023-05-02T11:35:24.593Z,79.10
2023-05-02T11:37:56.292Z,78.60
2023-05-02T11:40:25.359Z,78.50
2023-05-02T11:42:53.359Z,79.10
2023-05-02T11:45:21.603Z,77.80
2023-05-02T11:47:50.870Z,77.40
2023-05-02T11:50:18.673Z,78.10
2023-05-02T11:52:46.403Z,76.90
2023-05-02T11:55:15.907Z,76.60
2023-05-02T11:57:43.674Z,76.20
2023-05-02T12:00:11.989Z,76.10
2023-05-02T12:02:41.746Z,75.30
2023-05-02T12:05:11.798Z,75.40
2023-05-02T12:07:49.444Z,74.40
2023-05-02T12:10:16.954Z,74.10
2023-05-02T12:12:44.865Z,74.00
2023-05-02T12:15:13.110Z,73.50
2023-05-02T12:17:41.973Z,72.00
2023-05-02T12:20:10.890Z,71.50
2023-05-02T12:22:38.706Z,71.40
2023-05-02T12:25:07.071Z,70.90
2023-05-02T12:27:35.271Z,70.40
2023-05-02T12:30:04.852Z,69.50
2023-05-02T12:32:35.251Z,68.80
2023-05-02T12:35:03.980Z,68.20
2023-05-02T12:37:31.956Z,67.90
2023-05-02T12:39:59.911Z,68.00
2023-05-02T12:42:28.354Z,67.60
2023-05-02T12:44:56.975Z,67.60
2023-05-02T12:47:25.084Z,67.30
2023-05-02T12:49:56.838Z,66.80
2023-05-02T12:52:51.059Z,66.70
2023-05-02T12:55:20.120Z,66.30
2023-05-02T12:57:48.263Z,66.80
2023-05-02T13:00:18.800Z,66.60
2023-05-02T13:02:46.271Z,66.20
2023-05-02T13:05:17.477Z,66.70
2023-05-02T13:07:45.790Z,67.30
2023-05-02T13:10:17.892Z,67.30
2023-05-02T13:12:47.117Z,67.00
2023-05-02T13:15:16.489Z,66.80
2023-05-02T13:17:45.029Z,66.90
2023-05-02T13:20:13.236Z,66.80
2023-05-02T13:22:40.768Z,66.80
2023-05-02T13:25:10.116Z,66.80
2023-05-02T13:27:37.616Z,66.80
2023-05-02T13:30:08.841Z,67.10
2023-05-02T13:32:38.233Z,67.20
2023-05-02T13:35:06.721Z,67.40
2023-05-02T13:37:34.189Z,67.00
2023-05-02T13:40:02.311Z,67.10
2023-05-02T13:42:30.517Z,67.40
2023-05-02T13:44:58.216Z,67.60
2023-05-02T13:47:26.589Z,67.70
2023-05-02T13:49:54.338Z,67.80
2023-05-02T13:52:21.816Z,67.40
2023-05-02T13:54:49.575Z,67.20
2023-05-02T13:57:17.271Z,67.40
2023-05-02T13:59:44.760Z,67.00
2023-05-02T14:02:12.338Z,66.80
2023-05-02T14:04:40.146Z,66.50
2023-05-02T14:07:07.945Z,66.20
2023-05-02T14:09:35.459Z,66.00
2023-05-02T14:12:03.223Z,65.70
2023-05-02T14:14:30.921Z,65.60
2023-05-02T14:16:58.394Z,65.30
2023-05-02T14:19:26.152Z,64.70
2023-05-02T14:21:55.343Z,64.90
2023-05-02T14:24:22.909Z,65.00
2023-05-02T14:26:50.749Z,64.70
2023-05-02T14:29:18.675Z,64.90
2023-05-02T14:31:46.631Z,65.70
2023-05-02T14:34:14.724Z,65.00
2023-05-02T14:36:42.555Z,64.30
2023-05-02T14:39:10.205Z,63.40
2023-05-02T14:41:37.957Z,62.80
2023-05-02T14:44:05.641Z,62.60
2023-05-02T14:46:33.194Z,62.30
2023-05-02T14:49:00.750Z,62.00
2023-05-02T14:51:28.196Z,61.50
2023-05-02T14:53:55.894Z,60.80
2023-05-02T14:56:24.226Z,60.70
2023-05-02T14:58:51.917Z,60.50
2023-05-02T15:01:20.506Z,59.50
2023-05-02T15:04:04.965Z,58.90
2023-05-02T15:06:35.563Z,58.50
2023-05-02T15:09:05.118Z,57.80
2023-05-02T15:11:33.119Z,57.20
2023-05-02T15:14:00.855Z,56.60
2023-05-02T15:16:29.479Z,56.00
2023-05-02T15:18:57.007Z,55.50
2023-05-02T15:21:24.478Z,55.10
2023-05-02T15:23:52.084Z,54.00
2023-05-02T15:26:19.564Z,53.40
2023-05-02T15:28:47.130Z,53.10
2023-05-02T15:31:14.734Z,52.60
2023-05-02T15:33:42.217Z,52.50
2023-05-02T15:36:10.065Z,52.30
2023-05-02T15:38:42.375Z,51.70
2023-05-02T15:41:12.548Z,51.70
2023-05-02T15:43:40.092Z,51.40
2023-05-02T15:46:07.662Z,51.60
2023-05-02T15:48:35.333Z,51.50
2023-05-02T15:51:05.272Z,51.60
2023-05-02T15:53:32.917Z,51.60
2023-05-02T15:56:00.322Z,51.70
2023-05-02T15:58:27.722Z,51.80
2023-05-02T16:00:55.999Z,51.90
2023-05-02T16:03:23.632Z,52.20
2023-05-02T16:05:53.005Z,52.30
2023-05-02T16:08:20.884Z,52.60
2023-05-02T16:10:48.536Z,53.00
2023-05-02T16:13:16.336Z,53.20
2023-05-02T16:15:46.629Z,53.50
2023-05-02T16:18:15.113Z,54.00
2023-05-02T16:20:43.013Z,54.10
2023-05-02T16:23:11.031Z,54.30
2023-05-02T16:25:39.346Z,54.50
2023-05-02T16:28:07.140Z,54.60
2023-05-02T16:30:37.820Z,54.80
2023-05-02T16:33:05.432Z,55.20
2023-05-02T16:35:33.016Z,55.30
2023-05-02T16:38:00.943Z,55.40
2023-05-02T16:40:28.583Z,55.30
2023-05-02T16:42:56.041Z,55.40
2023-05-02T16:45:23.703Z,55.70
2023-05-02T16:47:51.545Z,55.40
2023-05-02T16:50:19.935Z,55.20
2023-05-02T16:52:47.720Z,55.40
2023-05-02T16:55:15.929Z,55.30
2023-05-02T16:57:43.408Z,55.40
2023-05-02T17:00:12.416Z,55.60
2023-05-02T17:02:40.469Z,55.00
2023-05-02T17:05:12.039Z,55.10
2023-05-02T17:07:39.704Z,55.00
2023-05-02T17:10:08.017Z,54.40
2023-05-02T17:12:36.002Z,54.00
2023-05-02T17:15:04.370Z,53.70
2023-05-02T17:17:33.172Z,53.40
2023-05-02T17:20:01.319Z,53.20
2023-05-02T17:22:29.494Z,53.20
2023-05-02T17:24:57.134Z,53.10
2023-05-02T17:27:24.846Z,52.80
2023-05-02T17:29:52.554Z,52.70
2023-05-02T17:32:20.267Z,52.60
2023-05-02T17:34:47.751Z,52.60
2023-05-02T17:37:15.798Z,52.80
2023-05-02T17:39:43.346Z,53.10
2023-05-02T17:42:11.098Z,53.30
2023-05-02T17:44:38.588Z,53.40
2023-05-02T17:47:06.546Z,53.70
2023-05-02T17:49:36.923Z,53.90
2023-05-02T17:52:31.873Z,54.20
2023-05-02T17:54:59.645Z,54.50
2023-05-02T17:57:27.380Z,54.90
2023-05-02T17:59:58.927Z,55.40
2023-05-02T18:02:29.726Z,56.10
2023-05-02T18:04:57.850Z,56.70
2023-05-02T18:07:28.903Z,56.70
2023-05-02T18:09:57.270Z,57.50
2023-05-02T18:12:24.844Z,58.00
2023-05-02T18:14:52.826Z,58.40
2023-05-02T18:17:21.392Z,58.70
2023-05-02T18:19:50.518Z,59.20
2023-05-02T18:22:21.288Z,59.80
2023-05-02T18:24:49.519Z,60.30
2023-05-02T18:27:17.667Z,60.20
2023-05-02T18:29:46.357Z,61.30
2023-05-02T18:32:14.835Z,62.30
2023-05-02T18:34:42.439Z,63.00
2023-05-02T18:37:10.381Z,63.80
2023-05-02T18:39:37.951Z,64.50
2023-05-02T18:42:08.445Z,65.00
2023-05-02T18:44:35.894Z,65.90
2023-05-02T18:47:03.315Z,66.20
2023-05-02T18:49:30.784Z,66.80
2023-05-02T18:51:58.214Z,67.40
2023-05-02T18:54:30.143Z,67.80
2023-05-02T18:56:57.664Z,67.90
2023-05-02T18:59:25.161Z,69.00
2023-05-02T19:01:52.785Z,68.50
2023-05-02T19:04:20.295Z,70.40
2023-05-02T19:06:47.903Z,70.50
2023-05-02T19:09:15.796Z,70.30
2023-05-02T19:11:43.257Z,70.50
2023-05-02T19:14:13.327Z,70.90
2023-05-02T19:16:41.106Z,71.40
2023-05-02T19:19:08.791Z,71.60
2023-05-02T19:21:36.255Z,72.00
2023-05-02T19:24:03.973Z,72.30
2023-05-02T19:26:32.002Z,72.80
2023-05-02T19:28:59.404Z,73.20
2023-05-02T19:31:27.051Z,73.50
2023-05-02T19:33:55.038Z,73.90
2023-05-02T19:36:23.986Z,74.20
2023-05-02T19:38:53.810Z,74.80
2023-05-02T19:41:24.707Z,75.20
2023-05-02T19:43:52.543Z,75.50
2023-05-02T19:46:20.068Z,75.60
2023-05-02T19:48:48.046Z,75.90
2023-05-02T19:51:16.133Z,76.30
2023-05-02T19:53:43.574Z,76.60
2023-05-02T19:56:11.075Z,76.90
2023-05-02T19:58:38.705Z,77.00
2023-05-02T20:01:07.865Z,77.30
2023-05-02T20:03:35.593Z,78.20
2023-05-02T20:06:03.396Z,78.20
2023-05-02T20:08:31.701Z,78.30
2023-05-02T20:10:59.669Z,78.50
2023-05-02T20:13:27.525Z,78.70
2023-05-02T20:15:55.056Z,78.80
2023-05-02T20:18:22.524Z,78.80
2023-05-02T20:20:50.037Z,78.90
2023-05-02T20:23:17.489Z,79.20
2023-05-02T20:25:45.683Z,79.20
2023-05-02T20:28:13.505Z,79.40
2023-05-02T20:30:42.007Z,79.50
2023-05-02T20:33:15.605Z,79.60
2023-05-02T20:35:44.699Z,79.90
2023-05-02T20:38:12.347Z,80.00
2023-05-02T20:40:40.836Z,80.30
2023-05-02T20:43:09.017Z,80.50
2023-05-02T20:45:36.620Z,80.70
2023-05-02T20:48:04.367Z,80.80
2023-05-02T20:50:32.157Z,81.00
2023-05-02T20:52:59.701Z,81.20
2023-05-02T20:55:27.593Z,81.30
2023-05-02T20:57:55.193Z,81.40
2023-05-02T21:00:22.885Z,82.50
2023-05-02T21:02:52.194Z,81.90
2023-05-02T21:05:20.054Z,82.90
2023-05-02T21:07:47.899Z,82.40
2023-05-02T21:10:15.934Z,82.40
2023-05-02T21:12:44.016Z,82.70
2023-05-02T21:15:14.585Z,82.70
2023-05-02T21:17:42.270Z,83.00
2023-05-02T21:20:11.039Z,83.10
2023-05-02T21:22:38.593Z,83.20
2023-05-02T21:25:06.949Z,83.40
2023-05-02T21:27:34.457Z,83.60
2023-05-02T21:30:02.217Z,83.60
2023-05-02T21:32:29.993Z,83.80
2023-05-02T21:34:57.576Z,83.90
2023-05-02T21:37:25.079Z,84.00
2023-05-02T21:39:52.596Z,84.20
2023-05-02T21:42:23.250Z,84.30
2023-05-02T21:44:51.019Z,84.30
2023-05-02T21:47:22.383Z,84.40
2023-05-02T21:49:49.858Z,84.70
2023-05-02T21:52:17.419Z,84.70
2023-05-02T21:54:49.979Z,84.80
2023-05-02T21:57:18.448Z,84.90
2023-05-02T21:59:46.383Z,84.90
2023-05-02T22:02:13.900Z,85.00
2023-05-02T22:04:41.576Z,85.10
2023-05-02T22:07:09.057Z,85.30
2023-05-02T22:09:36.900Z,85.20
2023-05-02T22:12:04.613Z,85.30
2023-05-02T22:14:41.713Z,85.40
2023-05-02T22:17:13.014Z,85.50
2023-05-02T22:19:40.721Z,85.50
2023-05-02T22:22:08.345Z,85.70
2023-05-02T22:24:35.805Z,85.80
2023-05-02T22:27:03.215Z,85.90
2023-05-02T22:29:30.645Z,86.00
2023-05-02T22:31:58.202Z,86.20
2023-05-02T22:34:26.018Z,86.30
2023-05-02T22:36:53.672Z,86.40
2023-05-02T22:39:21.650Z,86.60
2023-05-02T22:41:49.258Z,86.60
2023-05-02T22:44:16.963Z,86.70
2023-05-02T22:46:44.779Z,86.80
2023-05-02T22:49:12.380Z,87.00
2023-05-02T22:51:40.749Z,87.10
2023-05-02T22:54:08.525Z,87.20
2023-05-02T22:56:36.236Z,88.10
2023-05-02T22:59:04.022Z,87.40
2023-05-02T23:01:33.373Z,87.50
2023-05-02T23:04:01.212Z,87.60
2023-05-02T23:06:29.172Z,87.60
2023-05-02T23:08:56.912Z,87.70
2023-05-02T23:11:25.090Z,87.80
2023-05-02T23:13:52.851Z,87.90
2023-05-02T23:16:20.613Z,88.00
2023-05-02T23:18:48.214Z,88.00
2023-05-02T23:21:16.704Z,88.10
2023-05-02T23:23:44.260Z,88.20
2023-05-02T23:26:12.923Z,88.30
2023-05-02T23:28:40.515Z,88.50
2023-05-02T23:31:08.556Z,88.60
2023-05-02T23:33:36.596Z,88.60
2023-05-02T23:36:06.766Z,88.70
2023-05-02T23:38:36.164Z,88.80
2023-05-02T23:41:03.983Z,88.80
2023-05-02T23:43:31.872Z,88.90
2023-05-02T23:45:59.519Z,89.00
2023-05-02T23:48:27.796Z,89.20
2023-05-02T23:50:55.445Z,89.20
2023-05-02T23:53:22.900Z,89.20
2023-05-02T23:55:50.519Z,90.00
2023-05-02T23:58:18.418Z,89.50
